Bryant, Illinois
Current Conditions -  °F | °C
As of 11:54 AM on Sunday 25 Jan 2015 (Local Time) from KPIA Reporting Station
Light Snow Light Snow  
Wind Chill: 27°   Ceiling: 600
Heat Index: 35°   Visibility: 2mi
Dew Point: 32°   Wind: 10mph
Humidity: 89%   Direction: 30°NNE
Pressure: 29.7"   Gusts: 21mph
Location:  40.47°N, 90.09°W
Report Text: KPIA 251754Z 03009G18KT 2SM -SN BR OVC006 02/00 A2970 RMK AO2 SLP064 P0001 60012 T00170000 10028 20017 51018
Loading
Personal Weather Stations






























Interactive Weather Map New forecast layout! Learn more

10-Day Weather Forecast

Advertisements
Track Severe Weather on mobile